sensor_id;sensor_type;location;lat;lon;timestamp;P1;durP1;ratioP1;P2;durP2;ratioP2
24216;SDS011;12356;49.386;8.688;2023-11-21T00:00:04;7.28;;;2.10;;
24216;SDS011;12356;49.386;8.688;2023-11-21T00:02:41;7.00;;;2.00;;
24216;SDS011;12356;49.386;8.688;2023-11-21T00:05:13;5.38;;;1.90;;
24216;SDS011;12356;49.386;8.688;2023-11-21T00:07:47;6.57;;;2.30;;
24216;SDS011;12356;49.386;8.688;2023-11-21T00:10:17;10.05;;;2.33;;
24216;SDS011;12356;49.386;8.688;2023-11-21T00:12:48;5.80;;;2.00;;
24216;SDS011;12356;49.386;8.688;2023-11-21T00:15:18;4.90;;;2.20;;
24216;SDS011;12356;49.386;8.688;2023-11-21T00:17:49;6.93;;;2.03;;
24216;SDS011;12356;49.386;8.688;2023-11-21T00:20:20;7.00;;;2.08;;
24216;SDS011;12356;49.386;8.688;2023-11-21T00:22:51;11.20;;;2.20;;
24216;SDS011;12356;49.386;8.688;2023-11-21T00:25:21;6.88;;;2.08;;
24216;SDS011;12356;49.386;8.688;2023-11-21T00:27:52;8.27;;;2.50;;
24216;SDS011;12356;49.386;8.688;2023-11-21T00:30:24;8.20;;;2.05;;
24216;SDS011;12356;49.386;8.688;2023-11-21T00:32:54;8.55;;;2.25;;
24216;SDS011;12356;49.386;8.688;2023-11-21T00:35:25;5.18;;;1.85;;
24216;SDS011;12356;49.386;8.688;2023-11-21T00:37:55;8.40;;;2.10;;
24216;SDS011;12356;49.386;8.688;2023-11-21T00:40:27;7.53;;;2.13;;
24216;SDS011;12356;49.386;8.688;2023-11-21T00:42:58;7.40;;;1.88;;
24216;SDS011;12356;49.386;8.688;2023-11-21T00:45:28;5.97;;;2.13;;
24216;SDS011;12356;49.386;8.688;2023-11-21T00:47:59;7.38;;;2.10;;
24216;SDS011;12356;49.386;8.688;2023-11-21T00:50:30;9.27;;;2.22;;
24216;SDS011;12356;49.386;8.688;2023-11-21T00:53:00;14.43;;;2.58;;
24216;SDS011;12356;49.386;8.688;2023-11-21T00:55:32;10.57;;;2.20;;
24216;SDS011;12356;49.386;8.688;2023-11-21T00:58:04;8.63;;;2.38;;
24216;SDS011;12356;49.386;8.688;2023-11-21T01:00:36;5.78;;;1.80;;
24216;SDS011;12356;49.386;8.688;2023-11-21T01:03:09;8.38;;;2.22;;
24216;SDS011;12356;49.386;8.688;2023-11-21T01:05:40;7.38;;;2.05;;
24216;SDS011;12356;49.386;8.688;2023-11-21T01:08:11;6.65;;;2.17;;
24216;SDS011;12356;49.386;8.688;2023-11-21T01:10:42;5.88;;;2.10;;
24216;SDS011;12356;49.386;8.688;2023-11-21T01:13:13;8.65;;;2.08;;
24216;SDS011;12356;49.386;8.688;2023-11-21T01:15:45;6.38;;;1.90;;
24216;SDS011;12356;49.386;8.688;2023-11-21T01:18:16;5.78;;;2.25;;
24216;SDS011;12356;49.386;8.688;2023-11-21T01:20:47;7.70;;;2.15;;
24216;SDS011;12356;49.386;8.688;2023-11-21T01:23:17;6.35;;;2.05;;
24216;SDS011;12356;49.386;8.688;2023-11-21T01:25:48;6.78;;;2.10;;
24216;SDS011;12356;49.386;8.688;2023-11-21T01:28:19;7.20;;;1.90;;
24216;SDS011;12356;49.386;8.688;2023-11-21T01:30:50;7.75;;;2.00;;
24216;SDS011;12356;49.386;8.688;2023-11-21T01:33:20;8.60;;;2.10;;
24216;SDS011;12356;49.386;8.688;2023-11-21T01:35:51;4.05;;;1.80;;
24216;SDS011;12356;49.386;8.688;2023-11-21T01:38:24;9.95;;;2.13;;
24216;SDS011;12356;49.386;8.688;2023-11-21T01:40:55;11.38;;;2.10;;
24216;SDS011;12356;49.386;8.688;2023-11-21T01:43:26;7.38;;;2.08;;
24216;SDS011;12356;49.386;8.688;2023-11-21T01:45:57;7.72;;;2.00;;
24216;SDS011;12356;49.386;8.688;2023-11-21T01:48:28;5.65;;;1.85;;
24216;SDS011;12356;49.386;8.688;2023-11-21T01:50:59;8.50;;;2.10;;
24216;SDS011;12356;49.386;8.688;2023-11-21T01:53:31;6.97;;;1.80;;
24216;SDS011;12356;49.386;8.688;2023-11-21T01:56:01;8.20;;;2.33;;
24216;SDS011;12356;49.386;8.688;2023-11-21T01:58:33;6.15;;;2.17;;
24216;SDS011;12356;49.386;8.688;2023-11-21T02:01:04;5.30;;;2.05;;
24216;SDS011;12356;49.386;8.688;2023-11-21T02:03:35;7.35;;;2.20;;
24216;SDS011;12356;49.386;8.688;2023-11-21T02:06:06;9.68;;;2.20;;
24216;SDS011;12356;49.386;8.688;2023-11-21T02:08:36;8.35;;;2.30;;
24216;SDS011;12356;49.386;8.688;2023-11-21T02:11:07;6.22;;;2.03;;
24216;SDS011;12356;49.386;8.688;2023-11-21T02:13:39;8.35;;;1.80;;
24216;SDS011;12356;49.386;8.688;2023-11-21T02:16:13;8.45;;;2.13;;
24216;SDS011;12356;49.386;8.688;2023-11-21T02:18:43;4.38;;;2.00;;
24216;SDS011;12356;49.386;8.688;2023-11-21T02:21:14;7.72;;;2.20;;
24216;SDS011;12356;49.386;8.688;2023-11-21T02:23:45;7.25;;;1.65;;
24216;SDS011;12356;49.386;8.688;2023-11-21T02:26:16;7.93;;;2.15;;
24216;SDS011;12356;49.386;8.688;2023-11-21T02:28:47;7.00;;;2.10;;
24216;SDS011;12356;49.386;8.688;2023-11-21T02:31:17;3.10;;;2.00;;
24216;SDS011;12356;49.386;8.688;2023-11-21T02:33:49;6.20;;;1.90;;
24216;SDS011;12356;49.386;8.688;2023-11-21T02:36:19;3.65;;;1.67;;
24216;SDS011;12356;49.386;8.688;2023-11-21T02:38:51;4.07;;;1.70;;
24216;SDS011;12356;49.386;8.688;2023-11-21T02:41:22;6.85;;;1.67;;
24216;SDS011;12356;49.386;8.688;2023-11-21T02:43:52;4.55;;;1.92;;
24216;SDS011;12356;49.386;8.688;2023-11-21T02:46:23;7.13;;;1.70;;
24216;SDS011;12356;49.386;8.688;2023-11-21T02:48:53;5.15;;;1.73;;
24216;SDS011;12356;49.386;8.688;2023-11-21T02:51:24;3.95;;;1.70;;
24216;SDS011;12356;49.386;8.688;2023-11-21T02:53:55;5.35;;;2.00;;
24216;SDS011;12356;49.386;8.688;2023-11-21T02:56:28;4.40;;;1.80;;
24216;SDS011;12356;49.386;8.688;2023-11-21T02:58:59;4.07;;;1.50;;
24216;SDS011;12356;49.386;8.688;2023-11-21T03:01:30;4.32;;;1.85;;
24216;SDS011;12356;49.386;8.688;2023-11-21T03:04:01;5.50;;;1.70;;
24216;SDS011;12356;49.386;8.688;2023-11-21T03:06:32;6.93;;;1.77;;
24216;SDS011;12356;49.386;8.688;2023-11-21T03:09:03;7.28;;;1.65;;
24216;SDS011;12356;49.386;8.688;2023-11-21T03:11:34;6.35;;;1.50;;
24216;SDS011;12356;49.386;8.688;2023-11-21T03:14:05;4.60;;;1.45;;
24216;SDS011;12356;49.386;8.688;2023-11-21T03:16:35;5.80;;;1.60;;
24216;SDS011;12356;49.386;8.688;2023-11-21T03:19:08;6.13;;;1.73;;
24216;SDS011;12356;49.386;8.688;2023-11-21T03:21:38;6.85;;;1.65;;
24216;SDS011;12356;49.386;8.688;2023-11-21T03:24:09;5.55;;;1.60;;
24216;SDS011;12356;49.386;8.688;2023-11-21T03:26:39;4.85;;;1.50;;
24216;SDS011;12356;49.386;8.688;2023-11-21T03:29:10;4.50;;;1.65;;
24216;SDS011;12356;49.386;8.688;2023-11-21T03:31:40;7.28;;;1.60;;
24216;SDS011;12356;49.386;8.688;2023-11-21T03:34:15;5.32;;;1.67;;
24216;SDS011;12356;49.386;8.688;2023-11-21T03:36:46;4.68;;;1.73;;
24216;SDS011;12356;49.386;8.688;2023-11-21T03:39:17;3.65;;;1.45;;
24216;SDS011;12356;49.386;8.688;2023-11-21T03:41:47;4.60;;;1.67;;
24216;SDS011;12356;49.386;8.688;2023-11-21T03:44:18;4.13;;;1.42;;
24216;SDS011;12356;49.386;8.688;2023-11-21T03:46:48;5.68;;;1.80;;
24216;SDS011;12356;49.386;8.688;2023-11-21T03:49:19;5.45;;;1.60;;
24216;SDS011;12356;49.386;8.688;2023-11-21T03:51:50;4.65;;;1.70;;
24216;SDS011;12356;49.386;8.688;2023-11-21T03:54:20;3.15;;;1.50;;
24216;SDS011;12356;49.386;8.688;2023-11-21T03:56:51;4.20;;;1.40;;
24216;SDS011;12356;49.386;8.688;2023-11-21T03:59:22;4.13;;;1.40;;
24216;SDS011;12356;49.386;8.688;2023-11-21T04:04:26;5.80;;;1.70;;
24216;SDS011;12356;49.386;8.688;2023-11-21T04:06:57;5.93;;;1.67;;
24216;SDS011;12356;49.386;8.688;2023-11-21T04:09:28;7.63;;;1.60;;
24216;SDS011;12356;49.386;8.688;2023-11-21T04:11:58;6.47;;;1.52;;
24216;SDS011;12356;49.386;8.688;2023-11-21T04:14:29;4.75;;;1.70;;
24216;SDS011;12356;49.386;8.688;2023-11-21T04:16:59;4.55;;;1.70;;
24216;SDS011;12356;49.386;8.688;2023-11-21T04:19:30;6.35;;;1.67;;
24216;SDS011;12356;49.386;8.688;2023-11-21T04:22:01;5.85;;;1.98;;
24216;SDS011;12356;49.386;8.688;2023-11-21T04:24:32;6.07;;;1.58;;
24216;SDS011;12356;49.386;8.688;2023-11-21T04:27:02;3.80;;;1.88;;
24216;SDS011;12356;49.386;8.688;2023-11-21T04:29:33;5.00;;;1.80;;
24216;SDS011;12356;49.386;8.688;2023-11-21T04:32:05;5.32;;;1.92;;
24216;SDS011;12356;49.386;8.688;2023-11-21T04:34:35;6.80;;;1.92;;
24216;SDS011;12356;49.386;8.688;2023-11-21T04:37:06;4.70;;;2.00;;
24216;SDS011;12356;49.386;8.688;2023-11-21T04:39:36;3.65;;;1.90;;
24216;SDS011;12356;49.386;8.688;2023-11-21T04:42:07;3.80;;;1.83;;
24216;SDS011;12356;49.386;8.688;2023-11-21T04:44:38;7.93;;;2.17;;
24216;SDS011;12356;49.386;8.688;2023-11-21T04:47:11;5.38;;;1.98;;
24216;SDS011;12356;49.386;8.688;2023-11-21T04:49:42;9.18;;;2.22;;
24216;SDS011;12356;49.386;8.688;2023-11-21T04:52:13;5.13;;;2.10;;
24216;SDS011;12356;49.386;8.688;2023-11-21T04:54:44;4.55;;;2.00;;
24216;SDS011;12356;49.386;8.688;2023-11-21T04:57:14;4.25;;;2.20;;
24216;SDS011;12356;49.386;8.688;2023-11-21T04:59:51;4.07;;;2.65;;
24216;SDS011;12356;49.386;8.688;2023-11-21T05:02:21;6.22;;;2.78;;
24216;SDS011;12356;49.386;8.688;2023-11-21T05:04:52;6.82;;;2.80;;
24216;SDS011;12356;49.386;8.688;2023-11-21T05:07:23;10.57;;;3.00;;
24216;SDS011;12356;49.386;8.688;2023-11-21T05:09:56;5.70;;;3.03;;
24216;SDS011;12356;49.386;8.688;2023-11-21T05:12:27;10.63;;;3.30;;
24216;SDS011;12356;49.386;8.688;2023-11-21T05:14:58;5.93;;;2.90;;
24216;SDS011;12356;49.386;8.688;2023-11-21T05:17:28;8.45;;;3.03;;
24216;SDS011;12356;49.386;8.688;2023-11-21T05:19:59;6.75;;;3.13;;
24216;SDS011;12356;49.386;8.688;2023-11-21T05:22:30;6.93;;;2.95;;
24216;SDS011;12356;49.386;8.688;2023-11-21T05:25:02;8.07;;;3.20;;
24216;SDS011;12356;49.386;8.688;2023-11-21T05:27:34;5.45;;;3.00;;
24216;SDS011;12356;49.386;8.688;2023-11-21T05:30:05;6.53;;;3.15;;
24216;SDS011;12356;49.386;8.688;2023-11-21T05:32:36;6.40;;;3.13;;
24216;SDS011;12356;49.386;8.688;2023-11-21T05:35:07;7.30;;;3.53;;
24216;SDS011;12356;49.386;8.688;2023-11-21T05:37:42;7.45;;;3.28;;
24216;SDS011;12356;49.386;8.688;2023-11-21T05:40:13;5.35;;;3.30;;
24216;SDS011;12356;49.386;8.688;2023-11-21T05:42:44;7.82;;;3.50;;
24216;SDS011;12356;49.386;8.688;2023-11-21T05:45:14;6.03;;;3.40;;
24216;SDS011;12356;49.386;8.688;2023-11-21T05:47:45;9.77;;;3.63;;
24216;SDS011;12356;49.386;8.688;2023-11-21T05:50:16;7.47;;;3.42;;
24216;SDS011;12356;49.386;8.688;2023-11-21T05:52:48;7.13;;;3.50;;
24216;SDS011;12356;49.386;8.688;2023-11-21T05:55:18;7.53;;;3.80;;
24216;SDS011;12356;49.386;8.688;2023-11-21T05:57:51;8.55;;;4.15;;
24216;SDS011;12356;49.386;8.688;2023-11-21T06:00:22;7.20;;;4.00;;
24216;SDS011;12356;49.386;8.688;2023-11-21T06:02:53;6.05;;;3.92;;
24216;SDS011;12356;49.386;8.688;2023-11-21T06:05:24;8.80;;;3.97;;
24216;SDS011;12356;49.386;8.688;2023-11-21T06:07:56;11.27;;;4.20;;
24216;SDS011;12356;49.386;8.688;2023-11-21T06:10:28;7.22;;;4.03;;
24216;SDS011;12356;49.386;8.688;2023-11-21T06:12:59;7.05;;;4.43;;
24216;SDS011;12356;49.386;8.688;2023-11-21T06:15:30;9.35;;;5.30;;
24216;SDS011;12356;49.386;8.688;2023-11-21T06:18:00;9.63;;;5.35;;
24216;SDS011;12356;49.386;8.688;2023-11-21T06:20:31;7.72;;;5.43;;
24216;SDS011;12356;49.386;8.688;2023-11-21T06:23:02;8.95;;;5.70;;
24216;SDS011;12356;49.386;8.688;2023-11-21T06:25:33;10.07;;;5.07;;
24216;SDS011;12356;49.386;8.688;2023-11-21T06:28:06;9.77;;;5.90;;
24216;SDS011;12356;49.386;8.688;2023-11-21T06:30:36;12.50;;;6.88;;
24216;SDS011;12356;49.386;8.688;2023-11-21T06:33:08;13.75;;;7.90;;
24216;SDS011;12356;49.386;8.688;2023-11-21T06:35:39;10.90;;;7.18;;
24216;SDS011;12356;49.386;8.688;2023-11-21T06:38:10;11.77;;;7.15;;
24216;SDS011;12356;49.386;8.688;2023-11-21T06:40:40;11.45;;;7.45;;
24216;SDS011;12356;49.386;8.688;2023-11-21T06:43:11;11.65;;;6.85;;
24216;SDS011;12356;49.386;8.688;2023-11-21T06:45:42;12.98;;;6.97;;
24216;SDS011;12356;49.386;8.688;2023-11-21T06:48:14;14.43;;;7.88;;
24216;SDS011;12356;49.386;8.688;2023-11-21T06:50:44;11.88;;;7.07;;
24216;SDS011;12356;49.386;8.688;2023-11-21T06:53:16;13.77;;;7.40;;
24216;SDS011;12356;49.386;8.688;2023-11-21T06:55:47;12.73;;;7.72;;
24216;SDS011;12356;49.386;8.688;2023-11-21T06:58:17;11.77;;;7.82;;
24216;SDS011;12356;49.386;8.688;2023-11-21T07:00:48;11.88;;;7.45;;
24216;SDS011;12356;49.386;8.688;2023-11-21T07:03:20;11.32;;;7.68;;
24216;SDS011;12356;49.386;8.688;2023-11-21T07:05:50;10.35;;;7.57;;
24216;SDS011;12356;49.386;8.688;2023-11-21T07:08:21;11.13;;;7.60;;
24216;SDS011;12356;49.386;8.688;2023-11-21T07:10:52;16.17;;;7.68;;
24216;SDS011;12356;49.386;8.688;2023-11-21T07:13:23;10.98;;;7.57;;
24216;SDS011;12356;49.386;8.688;2023-11-21T07:15:53;12.07;;;6.93;;
24216;SDS011;12356;49.386;8.688;2023-11-21T07:18:24;10.48;;;6.95;;
24216;SDS011;12356;49.386;8.688;2023-11-21T07:20:55;10.55;;;6.47;;
24216;SDS011;12356;49.386;8.688;2023-11-21T07:23:25;9.10;;;6.20;;
24216;SDS011;12356;49.386;8.688;2023-11-21T07:25:56;10.00;;;6.03;;
24216;SDS011;12356;49.386;8.688;2023-11-21T07:28:26;8.20;;;5.82;;
24216;SDS011;12356;49.386;8.688;2023-11-21T07:30:57;11.25;;;5.80;;
24216;SDS011;12356;49.386;8.688;2023-11-21T07:33:27;11.60;;;5.88;;
24216;SDS011;12356;49.386;8.688;2023-11-21T07:35:58;8.23;;;5.82;;
24216;SDS011;12356;49.386;8.688;2023-11-21T07:38:29;11.20;;;6.43;;
24216;SDS011;12356;49.386;8.688;2023-11-21T07:40:59;11.57;;;6.70;;
24216;SDS011;12356;49.386;8.688;2023-11-21T07:43:31;11.10;;;6.60;;
24216;SDS011;12356;49.386;8.688;2023-11-21T07:46:05;8.68;;;6.20;;
24216;SDS011;12356;49.386;8.688;2023-11-21T07:48:35;8.80;;;6.57;;
24216;SDS011;12356;49.386;8.688;2023-11-21T07:51:06;9.57;;;6.88;;
24216;SDS011;12356;49.386;8.688;2023-11-21T07:53:37;15.82;;;8.27;;
24216;SDS011;12356;49.386;8.688;2023-11-21T07:56:08;14.18;;;8.32;;
24216;SDS011;12356;49.386;8.688;2023-11-21T07:58:39;13.60;;;9.02;;
24216;SDS011;12356;49.386;8.688;2023-11-21T08:01:10;13.55;;;9.27;;
24216;SDS011;12356;49.386;8.688;2023-11-21T08:03:41;18.00;;;10.40;;
24216;SDS011;12356;49.386;8.688;2023-11-21T08:06:12;17.75;;;10.30;;
24216;SDS011;12356;49.386;8.688;2023-11-21T08:08:42;17.83;;;10.90;;
24216;SDS011;12356;49.386;8.688;2023-11-21T08:11:13;15.25;;;10.73;;
24216;SDS011;12356;49.386;8.688;2023-11-21T08:13:43;14.57;;;10.10;;
24216;SDS011;12356;49.386;8.688;2023-11-21T08:16:14;20.15;;;11.13;;
24216;SDS011;12356;49.386;8.688;2023-11-21T08:18:46;20.80;;;11.05;;
24216;SDS011;12356;49.386;8.688;2023-11-21T08:21:17;16.98;;;11.32;;
24216;SDS011;12356;49.386;8.688;2023-11-21T08:23:49;17.60;;;10.98;;
24216;SDS011;12356;49.386;8.688;2023-11-21T08:26:23;22.15;;;11.73;;
24216;SDS011;12356;49.386;8.688;2023-11-21T08:28:54;17.67;;;11.73;;
24216;SDS011;12356;49.386;8.688;2023-11-21T08:31:26;21.77;;;11.85;;
24216;SDS011;12356;49.386;8.688;2023-11-21T08:33:57;18.20;;;12.30;;
24216;SDS011;12356;49.386;8.688;2023-11-21T08:36:27;19.38;;;13.07;;
24216;SDS011;12356;49.386;8.688;2023-11-21T08:38:58;21.88;;;13.13;;
24216;SDS011;12356;49.386;8.688;2023-11-21T08:41:28;20.15;;;12.10;;
24216;SDS011;12356;49.386;8.688;2023-11-21T08:44:00;19.73;;;11.95;;
24216;SDS011;12356;49.386;8.688;2023-11-21T08:46:31;19.70;;;11.70;;
24216;SDS011;12356;49.386;8.688;2023-11-21T08:49:01;17.77;;;11.15;;
24216;SDS011;12356;49.386;8.688;2023-11-21T08:51:32;20.00;;;11.60;;
24216;SDS011;12356;49.386;8.688;2023-11-21T08:54:03;17.67;;;11.18;;
24216;SDS011;12356;49.386;8.688;2023-11-21T08:56:38;20.83;;;10.82;;
24216;SDS011;12356;49.386;8.688;2023-11-21T08:59:09;16.75;;;11.45;;
24216;SDS011;12356;49.386;8.688;2023-11-21T09:01:40;18.90;;;10.63;;
24216;SDS011;12356;49.386;8.688;2023-11-21T09:04:11;16.88;;;10.15;;
24216;SDS011;12356;49.386;8.688;2023-11-21T09:06:42;17.30;;;10.23;;
24216;SDS011;12356;49.386;8.688;2023-11-21T09:09:13;16.80;;;9.52;;
24216;SDS011;12356;49.386;8.688;2023-11-21T09:11:44;13.65;;;8.57;;
24216;SDS011;12356;49.386;8.688;2023-11-21T09:14:15;11.37;;;8.13;;
24216;SDS011;12356;49.386;8.688;2023-11-21T09:16:47;12.00;;;7.72;;
24216;SDS011;12356;49.386;8.688;2023-11-21T09:19:19;10.82;;;7.63;;
24216;SDS011;12356;49.386;8.688;2023-11-21T09:21:49;10.52;;;7.07;;
24216;SDS011;12356;49.386;8.688;2023-11-21T09:24:20;11.50;;;7.47;;
24216;SDS011;12356;49.386;8.688;2023-11-21T09:26:50;10.07;;;7.75;;
24216;SDS011;12356;49.386;8.688;2023-11-21T09:29:21;13.02;;;7.20;;
24216;SDS011;12356;49.386;8.688;2023-11-21T09:31:52;10.73;;;7.00;;
24216;SDS011;12356;49.386;8.688;2023-11-21T09:34:25;11.43;;;7.40;;
24216;SDS011;12356;49.386;8.688;2023-11-21T09:36:55;10.40;;;7.50;;
24216;SDS011;12356;49.386;8.688;2023-11-21T09:39:26;11.90;;;8.10;;
24216;SDS011;12356;49.386;8.688;2023-11-21T09:41:57;12.68;;;8.20;;
24216;SDS011;12356;49.386;8.688;2023-11-21T09:44:46;10.85;;;7.60;;
24216;SDS011;12356;49.386;8.688;2023-11-21T09:47:26;8.27;;;6.07;;
24216;SDS011;12356;49.386;8.688;2023-11-21T09:49:57;9.20;;;5.75;;
24216;SDS011;12356;49.386;8.688;2023-11-21T09:52:31;8.57;;;6.28;;
24216;SDS011;12356;49.386;8.688;2023-11-21T09:55:05;8.32;;;6.45;;
24216;SDS011;12356;49.386;8.688;2023-11-21T09:57:36;8.90;;;5.35;;
24216;SDS011;12356;49.386;8.688;2023-11-21T10:00:07;8.52;;;5.82;;
24216;SDS011;12356;49.386;8.688;2023-11-21T10:02:41;7.40;;;5.47;;
24216;SDS011;12356;49.386;8.688;2023-11-21T10:05:12;6.85;;;4.63;;
24216;SDS011;12356;49.386;8.688;2023-11-21T10:07:43;7.10;;;4.28;;
24216;SDS011;12356;49.386;8.688;2023-11-21T10:10:20;5.55;;;4.10;;
24216;SDS011;12356;49.386;8.688;2023-11-21T10:12:53;7.90;;;3.80;;
24216;SDS011;12356;49.386;8.688;2023-11-21T10:15:26;6.03;;;3.80;;
24216;SDS011;12356;49.386;8.688;2023-11-21T10:17:57;5.15;;;3.55;;
24216;SDS011;12356;49.386;8.688;2023-11-21T10:20:28;5.82;;;3.60;;
24216;SDS011;12356;49.386;8.688;2023-11-21T10:23:00;6.40;;;3.60;;
24216;SDS011;12356;49.386;8.688;2023-11-21T10:25:34;4.75;;;3.60;;
24216;SDS011;12356;49.386;8.688;2023-11-21T10:28:06;8.07;;;4.00;;
24216;SDS011;12356;49.386;8.688;2023-11-21T10:30:37;5.03;;;3.47;;
24216;SDS011;12356;49.386;8.688;2023-11-21T10:33:08;5.40;;;3.78;;
24216;SDS011;12356;49.386;8.688;2023-11-21T10:35:43;5.25;;;3.65;;
24216;SDS011;12356;49.386;8.688;2023-11-21T10:38:21;5.47;;;3.58;;
24216;SDS011;12356;49.386;8.688;2023-11-21T10:40:54;7.55;;;4.05;;
24216;SDS011;12356;49.386;8.688;2023-11-21T10:43:25;6.32;;;4.30;;
24216;SDS011;12356;49.386;8.688;2023-11-21T10:45:57;6.65;;;4.72;;
24216;SDS011;12356;49.386;8.688;2023-11-21T10:48:29;8.25;;;4.65;;
24216;SDS011;12356;49.386;8.688;2023-11-21T10:51:06;7.72;;;4.35;;
24216;SDS011;12356;49.386;8.688;2023-11-21T10:53:40;8.30;;;4.32;;
24216;SDS011;12356;49.386;8.688;2023-11-21T10:56:12;7.32;;;4.70;;
24216;SDS011;12356;49.386;8.688;2023-11-21T10:58:49;12.32;;;5.32;;
24216;SDS011;12356;49.386;8.688;2023-11-21T11:01:24;7.55;;;5.25;;
24216;SDS011;12356;49.386;8.688;2023-11-21T11:03:59;7.65;;;5.03;;
24216;SDS011;12356;49.386;8.688;2023-11-21T11:06:31;9.23;;;5.30;;
24216;SDS011;12356;49.386;8.688;2023-11-21T11:09:03;9.20;;;6.30;;
24216;SDS011;12356;49.386;8.688;2023-11-21T11:11:33;9.45;;;6.60;;
24216;SDS011;12356;49.386;8.688;2023-11-21T11:14:08;12.35;;;7.30;;
24216;SDS011;12356;49.386;8.688;2023-11-21T11:16:41;9.60;;;6.88;;
24216;SDS011;12356;49.386;8.688;2023-11-21T11:19:13;11.40;;;7.43;;
24216;SDS011;12356;49.386;8.688;2023-11-21T11:22:02;10.32;;;7.25;;
24216;SDS011;12356;49.386;8.688;2023-11-21T11:25:25;12.48;;;7.40;;
24216;SDS011;12356;49.386;8.688;2023-11-21T11:30:39;9.95;;;7.20;;
24216;SDS011;12356;49.386;8.688;2023-11-21T11:33:26;9.98;;;7.18;;
24216;SDS011;12356;49.386;8.688;2023-11-21T11:38:55;12.68;;;6.93;;
24216;SDS011;12356;49.386;8.688;2023-11-21T11:41:26;11.13;;;7.22;;
24216;SDS011;12356;49.386;8.688;2023-11-21T11:44:00;10.75;;;6.80;;
24216;SDS011;12356;49.386;8.688;2023-11-21T11:46:40;8.90;;;6.80;;
24216;SDS011;12356;49.386;8.688;2023-11-21T11:49:38;10.40;;;6.43;;
24216;SDS011;12356;49.386;8.688;2023-11-21T11:52:34;9.85;;;6.28;;
24216;SDS011;12356;49.386;8.688;2023-11-21T11:55:15;10.80;;;6.70;;
24216;SDS011;12356;49.386;8.688;2023-11-21T11:57:51;10.23;;;6.28;;
24216;SDS011;12356;49.386;8.688;2023-11-21T12:02:57;8.57;;;6.40;;
24216;SDS011;12356;49.386;8.688;2023-11-21T12:05:29;8.80;;;6.10;;
24216;SDS011;12356;49.386;8.688;2023-11-21T12:08:03;9.90;;;6.60;;
24216;SDS011;12356;49.386;8.688;2023-11-21T12:10:36;10.82;;;5.78;;
24216;SDS011;12356;49.386;8.688;2023-11-21T12:13:11;9.63;;;6.30;;
24216;SDS011;12356;49.386;8.688;2023-11-21T12:15:44;9.65;;;5.78;;
24216;SDS011;12356;49.386;8.688;2023-11-21T12:18:15;7.68;;;5.78;;
24216;SDS011;12356;49.386;8.688;2023-11-21T12:20:46;8.77;;;6.05;;
24216;SDS011;12356;49.386;8.688;2023-11-21T12:23:20;9.00;;;6.07;;
24216;SDS011;12356;49.386;8.688;2023-11-21T12:25:51;7.18;;;5.63;;
24216;SDS011;12356;49.386;8.688;2023-11-21T12:28:21;8.88;;;5.68;;
24216;SDS011;12356;49.386;8.688;2023-11-21T12:30:53;11.60;;;5.93;;
24216;SDS011;12356;49.386;8.688;2023-11-21T12:33:24;8.05;;;5.38;;
24216;SDS011;12356;49.386;8.688;2023-11-21T12:35:55;9.68;;;5.80;;
24216;SDS011;12356;49.386;8.688;2023-11-21T12:38:34;7.13;;;5.05;;
24216;SDS011;12356;49.386;8.688;2023-11-21T12:41:08;7.50;;;4.90;;
24216;SDS011;12356;49.386;8.688;2023-11-21T12:43:40;7.97;;;5.05;;
24216;SDS011;12356;49.386;8.688;2023-11-21T12:46:11;7.28;;;4.55;;
24216;SDS011;12356;49.386;8.688;2023-11-21T12:51:15;4.73;;;3.47;;
24216;SDS011;12356;49.386;8.688;2023-11-21T12:53:46;4.35;;;3.10;;
24216;SDS011;12356;49.386;8.688;2023-11-21T12:56:18;3.08;;;2.30;;
24216;SDS011;12356;49.386;8.688;2023-11-21T12:58:53;2.90;;;2.03;;
24216;SDS011;12356;49.386;8.688;2023-11-21T13:01:27;3.50;;;2.00;;
24216;SDS011;12356;49.386;8.688;2023-11-21T13:03:59;2.65;;;1.20;;
24216;SDS011;12356;49.386;8.688;2023-11-21T13:06:30;2.17;;;1.20;;
24216;SDS011;12356;49.386;8.688;2023-11-21T13:09:04;1.88;;;1.13;;
24216;SDS011;12356;49.386;8.688;2023-11-21T13:11:35;3.55;;;2.25;;
24216;SDS011;12356;49.386;8.688;2023-11-21T13:14:06;5.60;;;2.87;;
24216;SDS011;12356;49.386;8.688;2023-11-21T13:16:37;7.47;;;3.15;;
24216;SDS011;12356;49.386;8.688;2023-11-21T13:19:09;6.57;;;3.40;;
24216;SDS011;12356;49.386;8.688;2023-11-21T13:21:39;5.80;;;3.20;;
24216;SDS011;12356;49.386;8.688;2023-11-21T13:24:10;6.15;;;4.03;;
24216;SDS011;12356;49.386;8.688;2023-11-21T13:26:41;6.40;;;3.50;;
24216;SDS011;12356;49.386;8.688;2023-11-21T13:29:12;5.97;;;3.50;;
24216;SDS011;12356;49.386;8.688;2023-11-21T13:31:43;6.30;;;3.30;;
24216;SDS011;12356;49.386;8.688;2023-11-21T13:34:13;6.53;;;3.20;;
24216;SDS011;12356;49.386;8.688;2023-11-21T13:36:44;5.25;;;3.25;;
24216;SDS011;12356;49.386;8.688;2023-11-21T13:39:15;2.38;;;1.60;;
24216;SDS011;12356;49.386;8.688;2023-11-21T13:41:47;3.75;;;1.50;;
24216;SDS011;12356;49.386;8.688;2023-11-21T13:44:20;1.65;;;1.17;;
24216;SDS011;12356;49.386;8.688;2023-11-21T13:46:59;4.47;;;1.45;;
24216;SDS011;12356;49.386;8.688;2023-11-21T13:49:30;2.65;;;1.50;;
24216;SDS011;12356;49.386;8.688;2023-11-21T13:52:05;2.65;;;1.38;;
24216;SDS011;12356;49.386;8.688;2023-11-21T13:54:37;2.55;;;1.65;;
24216;SDS011;12356;49.386;8.688;2023-11-21T13:57:08;4.45;;;1.60;;
24216;SDS011;12356;49.386;8.688;2023-11-21T13:59:39;5.13;;;2.13;;
24216;SDS011;12356;49.386;8.688;2023-11-21T14:02:10;4.93;;;2.00;;
24216;SDS011;12356;49.386;8.688;2023-11-21T14:04:48;3.70;;;1.73;;
24216;SDS011;12356;49.386;8.688;2023-11-21T14:07:26;3.80;;;1.30;;
24216;SDS011;12356;49.386;8.688;2023-11-21T14:10:05;3.78;;;1.40;;
24216;SDS011;12356;49.386;8.688;2023-11-21T14:12:43;1.92;;;1.27;;
24216;SDS011;12356;49.386;8.688;2023-11-21T14:15:14;4.20;;;2.10;;
24216;SDS011;12356;49.386;8.688;2023-11-21T14:17:48;3.83;;;2.15;;
24216;SDS011;12356;49.386;8.688;2023-11-21T14:20:19;6.28;;;2.70;;
24216;SDS011;12356;49.386;8.688;2023-11-21T14:22:51;5.68;;;2.78;;
24216;SDS011;12356;49.386;8.688;2023-11-21T14:25:22;5.43;;;2.70;;
24216;SDS011;12356;49.386;8.688;2023-11-21T14:27:52;5.22;;;2.92;;
24216;SDS011;12356;49.386;8.688;2023-11-21T14:30:23;4.38;;;2.78;;
24216;SDS011;12356;49.386;8.688;2023-11-21T14:32:54;5.20;;;2.67;;
24216;SDS011;12356;49.386;8.688;2023-11-21T14:35:25;5.65;;;2.80;;
24216;SDS011;12356;49.386;8.688;2023-11-21T14:37:56;6.60;;;2.70;;
24216;SDS011;12356;49.386;8.688;2023-11-21T14:40:28;5.57;;;2.35;;
24216;SDS011;12356;49.386;8.688;2023-11-21T14:43:03;6.20;;;2.42;;
24216;SDS011;12356;49.386;8.688;2023-11-21T14:45:36;5.13;;;2.30;;
24216;SDS011;12356;49.386;8.688;2023-11-21T14:48:07;4.38;;;2.20;;
24216;SDS011;12356;49.386;8.688;2023-11-21T14:50:56;4.25;;;2.22;;
24216;SDS011;12356;49.386;8.688;2023-11-21T14:53:32;5.15;;;1.95;;
24216;SDS011;12356;49.386;8.688;2023-11-21T14:56:24;5.57;;;1.88;;
24216;SDS011;12356;49.386;8.688;2023-11-21T14:59:01;7.28;;;2.00;;
24216;SDS011;12356;49.386;8.688;2023-11-21T15:01:46;7.03;;;1.88;;
24216;SDS011;12356;49.386;8.688;2023-11-21T15:04:26;6.05;;;1.95;;
24216;SDS011;12356;49.386;8.688;2023-11-21T15:07:07;2.83;;;1.83;;
24216;SDS011;12356;49.386;8.688;2023-11-21T15:09:38;5.35;;;2.10;;
24216;SDS011;12356;49.386;8.688;2023-11-21T15:12:12;5.05;;;2.17;;
24216;SDS011;12356;49.386;8.688;2023-11-21T15:14:48;8.60;;;2.30;;
24216;SDS011;12356;49.386;8.688;2023-11-21T15:17:24;6.32;;;2.03;;
24216;SDS011;12356;49.386;8.688;2023-11-21T15:20:00;5.88;;;1.98;;
24216;SDS011;12356;49.386;8.688;2023-11-21T15:22:31;5.90;;;2.20;;
24216;SDS011;12356;49.386;8.688;2023-11-21T15:25:01;9.23;;;2.30;;